Weston, Colorado
Current Conditions -  °F | °C
As of 8:53 AM on Friday 24 Oct 2014 (Local Time) from KRTN Reporting Station
Clear Clear  
Wind Chill: 51°   Ceiling: Unl
Heat Index: 51°   Visibility: 10mi
Dew Point: 38°   Wind: 5mph
Humidity: 61%   Direction: 50°NE
Pressure: 30.3"   Gusts: NA
Location:  37.14°N, 104.85°W
Report Text: KRTN 241453Z AUTO 05004KT 10SM CLR 11/03 A3030 RMK AO2 SLP210 T01060033 53010
Loading
Personal Weather Stations






























Interactive Weather Map
Tropical Storm Tracking
New forecast layout! Learn more

10-Day Weather Forecast

Advertisements
Track Severe Weather on mobile